Weather at Cape Baranova Ice Base [CLOSED]

Public forecast

Using degrees Celsius for public forecast. Weather courtesy of forecast.io.

Closest aviation weather report (METAR) to Cape Baranova Ice Base

Closest report is Svalbard Airport, Longyear, 920.7 nm (1,705.1 km) NW. Retrieved 2022/07/07 10:50 UTC (16 minutes ago):

ENSB 071050Z 27009KT 9999 FEW030 08/00 Q1009 NOSIG RMK WIND 1400FT 29007KT

Closest aviation forecast (TAF) to Cape Baranova Ice Base

Closest forecast is Svalbard Airport, Longyear, 920.7 nm (1,705.1 km) NW. Retrieved 2022/07/07 06:57 UTC (4 hours ago):

TAF ENSB 070500Z 0706/0806 12010KT 9999 FEW030 BECMG 0708/0711 27006KT